Time;durP1;ratioP1;P1;durP2;ratioP2;P2;SDS_P1;SDS_P2;PMS_P1;PMS_P2;Temp;Humidity;BMP_temperature;BMP_pressure;BME280_temperature;BME280_humidity;BME280_pressure;Samples;Min_cycle;Max_cycle;Signal;HPM_P1;HPM_P2
2022/10/30 00:01:22;;;;;;;;;;;;;;;11.43;98.42;99596.19;8235967;28;20307;-79
2022/10/30 00:05:24;;;;;;;;;;;;;;;11.40;97.93;99587.53;8244222;28;19959;-79
2022/10/30 00:09:26;;;;;;;;;;;;;;;11.37;97.77;99590.16;8255315;28;19941;-79
2022/10/30 00:13:27;;;;;;;;;;;;;;;11.34;97.96;99579.78;8261226;28;19926;-79
2022/10/30 00:17:28;;;;;;;;;;;;;;;11.29;97.43;99578.91;8250486;28;20338;-79
2022/10/30 00:21:29;;;;;;;;;;;;;;;11.29;98.22;99579.78;8258577;28;20525;-78
2022/10/30 00:25:33;;;;;;;;;;;;;;;11.28;98.36;99574.59;8248846;28;19984;-78
2022/10/30 00:29:34;;;;;;;;;;;;;;;11.26;98.36;99572.00;8251264;28;20406;-78
2022/10/30 00:33:35;;;;;;;;;;;;;;;11.25;98.32;99578.06;8235904;28;19934;-80
2022/10/30 00:37:37;;;;;;;;;;;;;;;11.23;98.34;99578.94;8246223;28;19930;-79
2022/10/30 00:41:40;;;;;;;;;;;;;;;11.19;98.33;99584.16;8255196;28;19984;-80
2022/10/30 00:45:41;;;;;;;;;;;;;;;11.21;98.63;99578.94;8234315;28;20024;-79
2022/10/30 00:50:12;;;;;;;;;;;;;;;11.20;98.72;99580.69;8256690;28;19925;-79
2022/10/30 00:54:14;;;;;;;;;;;;;;;11.23;98.95;99581.53;8246927;28;20413;-79
2022/10/30 00:58:18;;;;;;;;;;;;;;;11.23;99.22;99579.81;8246722;28;19930;-78
2022/10/30 01:02:20;;;;;;;;;;;;;;;11.24;98.87;99575.47;8242745;28;19930;-79
2022/10/30 01:06:22;;;;;;;;;;;;;;;11.21;98.81;99581.56;8259376;28;20020;-78
2022/10/30 01:10:23;;;;;;;;;;;;;;;11.23;98.97;99581.53;8251420;28;20004;-78
2022/10/30 01:14:25;;;;;;;;;;;;;;;11.19;98.80;99571.16;8259205;28;19955;-79
2022/10/30 01:18:50;;;;;;;;;;;;;;;11.15;98.87;99577.25;8201501;28;20322;-79
2022/10/30 01:23:03;;;;;;;;;;;;;;;11.15;98.88;99576.38;8227036;28;19937;-78
2022/10/30 01:27:26;;;;;;;;;;;;;;;11.07;98.86;99571.19;8227447;28;20248;-80
2022/10/30 01:31:46;;;;;;;;;;;;;;;11.04;99.03;99573.81;8233259;28;19926;-77
2022/10/30 01:36:03;;;;;;;;;;;;;;;10.99;98.74;99570.38;8223995;28;19982;-78
2022/10/30 01:40:08;;;;;;;;;;;;;;;10.95;99.10;99576.47;8219016;28;20001;-78
2022/10/30 01:44:19;;;;;;;;;;;;;;;10.94;99.90;99573.84;8207551;28;19992;-78
2022/10/30 01:48:20;;;;;;;;;;;;;;;10.92;100.00;99568.66;8237592;28;19982;-78
2022/10/30 01:52:26;;;;;;;;;;;;;;;10.91;99.45;99566.91;8244942;28;19930;-78
2022/10/30 01:56:33;;;;;;;;;;;;;;;10.92;99.46;99567.78;8248767;28;19930;-79
2022/10/30 02:00:36;;;;;;;;;;;;;;;10.90;99.19;99557.41;8229413;28;19930;-79
2022/10/30 02:04:37;;;;;;;;;;;;;;;10.85;99.33;99548.75;8215284;28;20670;-78
2022/10/30 02:08:39;;;;;;;;;;;;;;;10.83;99.13;99548.78;8221564;28;19977;-78
2022/10/30 02:12:40;;;;;;;;;;;;;;;10.82;99.22;99551.38;8215534;28;20370;-78
2022/10/30 02:16:44;;;;;;;;;;;;;;;10.74;98.88;99553.97;8209110;28;19926;-79
2022/10/30 02:20:47;;;;;;;;;;;;;;;10.70;98.64;99556.59;8254790;28;19961;-79
2022/10/30 02:24:48;;;;;;;;;;;;;;;10.67;98.69;99560.06;8250925;28;19968;-78
2022/10/30 02:28:50;;;;;;;;;;;;;;;10.63;98.70;99557.50;8257358;28;19957;-79
2022/10/30 02:32:51;;;;;;;;;;;;;;;10.61;98.74;99546.25;8224165;28;20323;-78
2022/10/30 02:36:53;;;;;;;;;;;;;;;10.53;98.20;99544.50;8211242;28;19934;-78
2022/10/30 02:40:56;;;;;;;;;;;;;;;10.46;98.47;99548.00;8232259;28;19930;-78
2022/10/30 02:44:57;;;;;;;;;;;;;;;10.45;98.80;99548.00;8232448;28;19934;-80
2022/10/30 02:48:58;;;;;;;;;;;;;;;10.42;99.26;99546.28;8245663;28;20599;-78
2022/10/30 02:53:00;;;;;;;;;;;;;;;10.37;98.86;99544.53;8252011;28;20033;-79
2022/10/30 02:57:02;;;;;;;;;;;;;;;10.35;98.88;99549.72;8256162;28;20365;-78
2022/10/30 03:01:14;;;;;;;;;;;;;;;10.28;98.92;99551.47;8235019;28;19937;-78
2022/10/30 03:05:15;;;;;;;;;;;;;;;10.25;98.74;99542.81;8245963;28;20016;-78
2022/10/30 03:09:17;;;;;;;;;;;;;;;10.19;98.96;99550.56;8267678;28;19992;-78
2022/10/30 03:13:18;;;;;;;;;;;;;;;10.18;98.76;99557.47;8264042;28;19981;-78
2022/10/30 03:17:19;;;;;;;;;;;;;;;10.08;98.69;99562.69;8261135;28;19930;-79
2022/10/30 03:21:24;;;;;;;;;;;;;;;10.08;99.07;99557.50;8259356;28;20344;-79
2022/10/30 03:25:25;;;;;;;;;;;;;;;10.04;99.41;99559.19;8261146;28;20302;-79
2022/10/30 03:29:27;;;;;;;;;;;;;;;10.01;99.16;99559.22;8241960;28;19934;-78
2022/10/30 03:33:29;;;;;;;;;;;;;;;9.97;98.93;99562.66;8256252;28;19934;-78
2022/10/30 03:37:30;;;;;;;;;;;;;;;9.95;98.82;99570.47;8249187;28;19995;-79
2022/10/30 03:41:32;;;;;;;;;;;;;;;9.89;99.13;99565.28;8267452;28;19945;-79
2022/10/30 03:45:34;;;;;;;;;;;;;;;9.82;98.80;99568.69;8246055;28;19952;-79
2022/10/30 03:49:35;;;;;;;;;;;;;;;9.77;98.55;99559.19;8260972;28;19929;-78
2022/10/30 03:53:36;;;;;;;;;;;;;;;9.73;98.74;99568.69;8263175;28;19946;-79
2022/10/30 03:57:38;;;;;;;;;;;;;;;9.72;98.75;99568.69;8266418;28;19937;-79
2022/10/30 04:01:39;;;;;;;;;;;;;;;9.63;98.33;99569.53;8252422;28;19930;-79
2022/10/30 04:05:41;;;;;;;;;;;;;;;9.57;98.11;99561.75;8262144;28;20004;-79
2022/10/30 04:09:42;;;;;;;;;;;;;;;9.52;98.45;99564.34;8242586;28;19926;-79
2022/10/30 04:13:44;;;;;;;;;;;;;;;9.51;98.82;99570.34;8260322;28;20354;-79
2022/10/30 04:17:50;;;;;;;;;;;;;;;9.45;98.67;99565.16;8248615;28;20675;-80
2022/10/30 04:21:52;;;;;;;;;;;;;;;9.44;99.07;99563.44;8250540;28;19930;-80
2022/10/30 04:25:53;;;;;;;;;;;;;;;9.40;98.43;99566.88;8261476;28;19930;-79
2022/10/30 04:29:54;;;;;;;;;;;;;;;9.38;99.22;99568.63;8256329;28;19999;-80
2022/10/30 04:33:55;;;;;;;;;;;;;;;9.35;99.34;99573.78;8252545;28;20425;-79
2022/10/30 04:37:58;;;;;;;;;;;;;;;9.32;100.00;99566.84;8254452;28;20562;-77
2022/10/30 04:41:59;;;;;;;;;;;;;;;9.33;99.65;99562.53;8252726;28;19941;-80
2022/10/30 04:46:03;;;;;;;;;;;;;;;9.29;99.04;99571.16;8226562;28;20322;-79
2022/10/30 04:50:04;;;;;;;;;;;;;;;9.28;99.39;99579.78;8240169;28;19929;-80
2022/10/30 04:54:06;;;;;;;;;;;;;;;9.27;99.31;99578.94;8257355;28;19936;-79
2022/10/30 04:58:08;;;;;;;;;;;;;;;9.22;98.95;99570.28;8256553;28;19934;-78
2022/10/30 05:02:09;;;;;;;;;;;;;;;9.16;98.79;99572.84;8244509;28;19940;-78
2022/10/30 05:06:22;;;;;;;;;;;;;;;9.09;99.00;99571.94;8252398;28;19978;-80
2022/10/30 05:10:23;;;;;;;;;;;;;;;9.05;98.02;99564.16;8260446;28;19930;-82
2022/10/30 05:14:26;;;;;;;;;;;;;;;8.97;98.01;99556.34;8233986;28;19929;-78
2022/10/30 05:18:28;;;;;;;;;;;;;;;8.96;97.88;99556.34;8247978;28;20310;-80
2022/10/30 05:22:29;;;;;;;;;;;;;;;8.92;97.88;99554.59;8229521;28;19926;-77
2022/10/30 05:26:31;;;;;;;;;;;;;;;8.87;98.56;99562.34;8250345;28;19937;-78
2022/10/30 05:30:33;;;;;;;;;;;;;;;8.83;98.22;99555.44;8241342;28;19930;-78
2022/10/30 05:34:34;;;;;;;;;;;;;;;8.79;98.43;99548.47;8239143;28;19934;-78
2022/10/30 05:38:36;;;;;;;;;;;;;;;8.79;98.37;99553.66;8247914;28;20353;-78
2022/10/30 05:42:37;;;;;;;;;;;;;;;8.76;98.87;99551.94;8242922;28;19938;-79
2022/10/30 05:46:38;;;;;;;;;;;;;;;8.74;98.60;99555.38;8220503;28;20385;-78
2022/10/30 05:50:40;;;;;;;;;;;;;;;8.65;98.27;99563.97;8252187;28;19929;-78
2022/10/30 05:54:41;;;;;;;;;;;;;;;8.61;98.69;99558.72;8254915;28;19992;-78
2022/10/30 05:58:42;;;;;;;;;;;;;;;8.63;98.75;99560.50;8227429;28;20677;-78
2022/10/30 06:02:44;;;;;;;;;;;;;;;8.64;99.02;99569.13;8253267;28;20928;-78
2022/10/30 06:06:45;;;;;;;;;;;;;;;8.60;98.24;99572.53;8242786;28;19988;-78
2022/10/30 06:10:47;;;;;;;;;;;;;;;8.58;98.17;99566.47;8246930;28;20024;-78
2022/10/30 06:14:48;;;;;;;;;;;;;;;8.55;98.06;99563.88;8251085;28;19934;-77
2022/10/30 06:18:49;;;;;;;;;;;;;;;8.55;98.38;99558.69;8250949;28;20024;-76
2022/10/30 06:27:02;;;;;;;;;;;;;;;8.51;98.38;99550.06;8338324;23;19933;-78
2022/10/30 06:31:04;;;;;;;;;;;;;;;8.49;98.76;99549.19;8251878;28;19992;-77
2022/10/30 06:35:07;;;;;;;;;;;;;;;8.53;98.45;99557.84;8289317;28;20052;-77
2022/10/30 06:39:09;;;;;;;;;;;;;;;8.53;99.33;99558.69;8272882;28;19933;-77
2022/10/30 06:43:10;;;;;;;;;;;;;;;8.53;98.99;99565.59;8278266;28;19952;-78
2022/10/30 06:47:11;;;;;;;;;;;;;;;8.48;98.93;99563.00;8275624;28;19929;-77
2022/10/30 06:51:14;;;;;;;;;;;;;;;8.48;98.75;99570.75;8269946;28;19984;-77
2022/10/30 06:55:16;;;;;;;;;;;;;;;8.52;98.86;99569.03;8283058;28;19936;-77
2022/10/30 06:59:17;;;;;;;;;;;;;;;8.55;99.33;99569.06;8273482;28;20821;-77
2022/10/30 07:03:19;;;;;;;;;;;;;;;8.60;99.53;99575.97;8282897;28;19937;-77
2022/10/30 07:07:20;;;;;;;;;;;;;;;8.66;99.36;99576.03;8268490;28;20436;-78
2022/10/30 07:11:21;;;;;;;;;;;;;;;8.75;100.00;99578.66;8289019;28;19933;-79
2022/10/30 07:15:23;;;;;;;;;;;;;;;8.89;100.00;99586.53;8284223;28;20780;-78
2022/10/30 07:19:24;;;;;;;;;;;;;;;9.01;99.87;99578.84;8291631;28;19932;-78
2022/10/30 07:23:25;;;;;;;;;;;;;;;9.17;99.45;99586.69;8291306;28;20346;-80
2022/10/30 07:27:27;;;;;;;;;;;;;;;9.32;99.39;99589.31;8289278;28;19925;-79
2022/10/30 07:31:28;;;;;;;;;;;;;;;9.51;98.75;99585.91;8283583;28;19939;-78
2022/10/30 07:35:42;;;;;;;;;;;;;;;9.71;98.30;99580.81;8290216;28;19939;-78
2022/10/30 07:39:44;;;;;;;;;;;;;;;9.90;98.81;99579.09;8290703;28;19937;-79
2022/10/30 07:43:45;;;;;;;;;;;;;;;10.07;98.65;99579.13;8273234;28;20306;-80
2022/10/30 07:47:47;;;;;;;;;;;;;;;10.17;97.68;99584.28;8282584;28;19979;-79
2022/10/30 07:51:48;;;;;;;;;;;;;;;10.33;97.71;99595.59;8285231;28;19984;-78
2022/10/30 07:55:49;;;;;;;;;;;;;;;10.51;97.58;99597.31;8293279;28;20006;-78
2022/10/30 07:59:51;;;;;;;;;;;;;;;10.73;97.15;99592.94;8289433;28;19930;-80
2022/10/30 08:03:52;;;;;;;;;;;;;;;10.98;95.98;99592.03;8260191;28;19933;-79
2022/10/30 08:07:54;;;;;;;;;;;;;;;11.29;95.74;99597.97;8291696;28;19933;-78
2022/10/30 08:11:55;;;;;;;;;;;;;;;11.69;95.22;99593.47;8288733;28;20298;-78
2022/10/30 08:15:57;;;;;;;;;;;;;;;12.11;93.48;99594.06;8277474;28;19929;-77
2022/10/30 08:19:58;;;;;;;;;;;;;;;12.42;91.24;99599.06;8287443;28;19945;-78
2022/10/30 08:23:59;;;;;;;;;;;;;;;12.68;90.10;99600.53;8282058;28;20003;-77
2022/10/30 08:28:02;;;;;;;;;;;;;;;13.00;88.91;99600.22;8261261;28;19992;-77
2022/10/30 08:32:04;;;;;;;;;;;;;;;13.39;87.60;99598.03;8275652;28;19987;-76
2022/10/30 08:36:06;;;;;;;;;;;;;;;13.84;86.74;99590.50;8281439;28;19991;-76
2022/10/30 08:40:09;;;;;;;;;;;;;;;14.25;84.95;99587.25;8275456;28;19933;-76
2022/10/30 08:44:10;;;;;;;;;;;;;;;14.58;83.39;99587.59;8278652;28;20329;-76
2022/10/30 08:48:13;;;;;;;;;;;;;;;14.95;82.71;99579.94;8272442;28;19929;-76
2022/10/30 08:52:14;;;;;;;;;;;;;;;15.34;81.75;99580.91;8281410;28;20003;-76
2022/10/30 08:56:16;;;;;;;;;;;;;;;15.74;80.04;99586.19;8261422;28;19929;-77
2022/10/30 09:00:17;;;;;;;;;;;;;;;16.18;79.33;99577.31;8259409;28;20309;-77
2022/10/30 09:04:18;;;;;;;;;;;;;;;16.52;78.22;99571.22;8265383;28;19930;-77
2022/10/30 09:08:20;;;;;;;;;;;;;;;16.77;76.62;99576.72;8285203;28;20484;-77
2022/10/30 09:12:22;;;;;;;;;;;;;;;16.84;76.43;99571.25;8281753;28;19976;-78
2022/10/30 09:16:23;;;;;;;;;;;;;;;16.92;76.73;99571.91;8275500;28;20342;-78
2022/10/30 09:20:25;;;;;;;;;;;;;;;17.08;76.09;99568.88;8280671;28;19937;-77
2022/10/30 09:24:32;;;;;;;;;;;;;;;17.31;76.18;99568.22;8285346;28;19936;-77
2022/10/30 09:28:34;;;;;;;;;;;;;;;17.49;75.71;99570.31;8283704;28;20247;-77
2022/10/30 09:32:35;;;;;;;;;;;;;;;17.73;75.20;99561.69;8273965;28;19934;-78
2022/10/30 09:36:37;;;;;;;;;;;;;;;17.92;73.25;99561.13;8282901;28;19943;-77
2022/10/30 09:40:58;;;;;;;;;;;;;;;18.06;72.69;99559.78;8285968;28;20397;-77
2022/10/30 09:45:19;;;;;;;;;;;;;;;18.39;72.88;99559.59;8258643;28;19933;-77
2022/10/30 09:49:57;;;;;;;;;;;;;;;18.63;70.88;99552.66;8281128;28;19976;-77
2022/10/30 09:54:05;;;;;;;;;;;;;;;18.92;68.02;99552.50;8284961;28;19929;-78
2022/10/30 09:58:25;;;;;;;;;;;;;;;19.31;64.66;99547.56;8286486;28;19937;-78
2022/10/30 10:02:32;;;;;;;;;;;;;;;19.57;64.80;99557.16;8278636;28;20306;-78
2022/10/30 10:06:38;;;;;;;;;;;;;;;19.75;63.57;99549.41;8266940;28;20035;-78
2022/10/30 10:10:42;;;;;;;;;;;;;;;19.88;62.54;99548.88;8265897;28;19930;-77
2022/10/30 10:14:45;;;;;;;;;;;;;;;20.03;58.97;99554.47;8279868;28;19930;-78
2022/10/30 10:18:50;;;;;;;;;;;;;;;20.19;60.17;99548.50;8270559;28;19938;-77
2022/10/30 10:22:51;;;;;;;;;;;;;;;20.42;57.80;99552.00;8281534;28;19929;-77
2022/10/30 10:27:03;;;;;;;;;;;;;;;20.56;52.97;99551.41;8281409;28;19988;-77
2022/10/30 10:31:14;;;;;;;;;;;;;;;20.71;54.08;99551.63;8274116;28;20573;-77
2022/10/30 10:35:15;;;;;;;;;;;;;;;20.90;52.14;99554.31;8264537;28;19929;-77
2022/10/30 10:39:17;;;;;;;;;;;;;;;21.06;51.20;99552.72;8279183;28;19940;-77
2022/10/30 10:43:21;;;;;;;;;;;;;;;21.24;49.76;99553.72;8283008;28;19941;-77
2022/10/30 10:47:22;;;;;;;;;;;;;;;21.41;48.64;99548.50;8276041;28;19929;-77
2022/10/30 10:51:33;;;;;;;;;;;;;;;21.60;47.71;99547.66;8295843;28;19929;-77
2022/10/30 10:55:36;;;;;;;;;;;;;;;21.76;47.26;99551.28;8277782;28;19938;-77
2022/10/30 10:59:41;;;;;;;;;;;;;;;21.99;47.22;99548.38;8285689;28;19930;-78
2022/10/30 11:03:57;;;;;;;;;;;;;;;22.11;47.68;99538.19;8281653;28;20005;-78
2022/10/30 11:08:03;;;;;;;;;;;;;;;22.25;46.93;99541.84;8267593;28;20745;-77
2022/10/30 11:12:05;;;;;;;;;;;;;;;22.35;46.52;99544.03;8285609;28;20170;-77
2022/10/30 11:16:19;;;;;;;;;;;;;;;22.29;44.18;99535.47;8278038;28;19948;-77
2022/10/30 11:20:22;;;;;;;;;;;;;;;22.36;44.22;99529.88;8267628;28;20003;-77
2022/10/30 11:24:33;;;;;;;;;;;;;;;22.47;44.57;99531.06;8284428;28;19933;-77
2022/10/30 11:28:41;;;;;;;;;;;;;;;22.63;43.60;99525.84;8288214;28;20347;-77
2022/10/30 11:32:42;;;;;;;;;;;;;;;22.67;43.45;99529.16;8279430;28;19925;-77
2022/10/30 11:36:44;;;;;;;;;;;;;;;22.53;42.20;99533.38;8290266;28;20456;-77
2022/10/30 11:40:47;;;;;;;;;;;;;;;22.50;42.66;99535.31;8268597;28;19987;-77
2022/10/30 11:44:49;;;;;;;;;;;;;;;22.59;43.43;99526.91;8285012;28;19929;-77
2022/10/30 11:48:53;;;;;;;;;;;;;;;22.69;43.00;99528.16;8281528;28;19933;-77
2022/10/30 11:53:00;;;;;;;;;;;;;;;22.74;42.62;99522.59;8268184;28;19999;-77
2022/10/30 11:57:03;;;;;;;;;;;;;;;22.65;41.69;99534.53;8286091;28;20327;-77
2022/10/30 12:01:06;;;;;;;;;;;;;;;22.65;42.64;99539.00;8278710;28;19930;-77
2022/10/30 12:05:28;;;;;;;;;;;;;;;22.60;42.13;99525.97;8268103;28;19930;-77
2022/10/30 12:09:30;;;;;;;;;;;;;;;22.65;43.62;99525.75;8286837;28;19938;-77
2022/10/30 12:13:35;;;;;;;;;;;;;;;22.68;42.76;99526.44;8294941;28;19995;-77
2022/10/30 12:17:36;;;;;;;;;;;;;;;22.64;42.89;99529.34;8276707;28;20278;-77
2022/10/30 12:21:39;;;;;;;;;;;;;;;22.63;43.58;99527.63;8281187;28;19941;-77
2022/10/30 12:25:45;;;;;;;;;;;;;;;22.64;43.56;99524.91;8284864;28;19929;-77
2022/10/30 12:30:04;;;;;;;;;;;;;;;22.69;43.45;99522.00;8283572;28;19991;-77
2022/10/30 12:34:13;;;;;;;;;;;;;;;22.66;44.41;99517.72;8283244;28;20008;-77
2022/10/30 12:38:25;;;;;;;;;;;;;;;22.68;44.23;99523.78;8283599;28;19952;-76
2022/10/30 12:42:27;;;;;;;;;;;;;;;22.68;44.44;99518.50;8281308;28;19930;-77
2022/10/30 12:46:45;;;;;;;;;;;;;;;22.77;45.39;99514.50;8280205;28;19939;-76
2022/10/30 12:50:55;;;;;;;;;;;;;;;22.83;46.14;99503.63;8277318;28;19988;-76
2022/10/30 12:55:20;;;;;;;;;;;;;;;22.86;46.03;99509.63;8292509;28;20378;-77
2022/10/30 12:59:21;;;;;;;;;;;;;;;22.88;45.49;99510.41;8283115;28;19929;-77
2022/10/30 13:03:27;;;;;;;;;;;;;;;22.98;44.41;99507.25;8276213;28;19929;-77
2022/10/30 13:07:37;;;;;;;;;;;;;;;23.01;43.69;99505.31;8280117;28;19929;-76
2022/10/30 13:11:56;;;;;;;;;;;;;;;23.07;45.16;99501.47;8282778;28;20826;-76
2022/10/30 13:16:01;;;;;;;;;;;;;;;23.11;43.61;99505.66;8275692;28;20680;-77
2022/10/30 13:20:04;;;;;;;;;;;;;;;23.12;44.13;99494.97;8281645;28;19987;-76
2022/10/30 13:24:05;;;;;;;;;;;;;;;23.16;43.23;99496.53;8265262;28;19937;-76
2022/10/30 13:28:23;;;;;;;;;;;;;;;23.24;42.91;99503.22;8280992;28;19929;-76
2022/10/30 13:32:28;;;;;;;;;;;;;;;23.30;44.38;99498.41;8275566;28;20441;-76
2022/10/30 13:36:35;;;;;;;;;;;;;;;23.30;43.60;99497.56;8261345;28;19934;-76
2022/10/30 13:40:42;;;;;;;;;;;;;;;23.26;42.89;99501.31;8283332;28;19940;-76
2022/10/30 13:44:54;;;;;;;;;;;;;;;23.20;44.07;99495.44;8280639;28;20900;-76
2022/10/30 13:49:08;;;;;;;;;;;;;;;23.15;44.64;99491.31;8274979;28;19936;-76
2022/10/30 13:53:13;;;;;;;;;;;;;;;23.05;44.98;99492.75;8280835;28;20434;-76
2022/10/30 13:57:33;;;;;;;;;;;;;;;22.90;46.40;99495.28;8264838;28;20599;-76
2022/10/30 14:01:41;;;;;;;;;;;;;;;22.75;44.97;99495.19;8258002;28;20317;-76
2022/10/30 14:05:49;;;;;;;;;;;;;;;22.60;45.49;99499.50;8293079;28;19988;-76
2022/10/30 14:10:10;;;;;;;;;;;;;;;22.41;45.54;99498.72;8264894;28;19931;-76
2022/10/30 14:14:11;;;;;;;;;;;;;;;22.27;46.58;99496.81;8287411;28;19988;-76
2022/10/30 14:18:13;;;;;;;;;;;;;;;22.19;47.48;99496.31;8273741;28;19930;-76
2022/10/30 14:22:26;;;;;;;;;;;;;;;22.05;47.58;99490.88;8281294;28;19955;-76
2022/10/30 14:26:28;;;;;;;;;;;;;;;21.98;49.70;99498.22;8279046;28;20344;-76
2022/10/30 14:30:32;;;;;;;;;;;;;;;21.88;50.28;99491.66;8272129;28;19929;-76
2022/10/30 14:34:48;;;;;;;;;;;;;;;21.80;49.93;99496.47;8283550;28;19929;-77
2022/10/30 14:39:13;;;;;;;;;;;;;;;21.75;48.95;99499.34;8298243;28;20283;-76
2022/10/30 14:43:23;;;;;;;;;;;;;;;21.73;49.49;99505.66;8257929;28;19960;-77
2022/10/30 14:47:43;;;;;;;;;;;;;;;21.67;49.52;99505.00;8281623;28;19930;-76
2022/10/30 14:51:58;;;;;;;;;;;;;;;21.48;52.67;99508.59;8285404;28;19983;-76
2022/10/30 14:56:06;;;;;;;;;;;;;;;21.36;51.16;99508.25;8285433;28;19929;-77
2022/10/30 15:00:28;;;;;;;;;;;;;;;21.31;50.62;99504.94;8278235;28;19995;-76
2022/10/30 15:04:48;;;;;;;;;;;;;;;21.20;50.47;99507.22;8286994;28;19961;-77
2022/10/30 15:09:01;;;;;;;;;;;;;;;21.08;55.04;99510.41;8267762;28;20484;-77
2022/10/30 15:13:05;;;;;;;;;;;;;;;20.90;53.71;99505.94;8285239;28;20662;-77
2022/10/30 15:17:29;;;;;;;;;;;;;;;20.76;53.13;99510.03;8277948;28;20016;-77
2022/10/30 15:21:33;;;;;;;;;;;;;;;20.60;55.77;99511.63;8282787;28;19940;-76
2022/10/30 15:25:44;;;;;;;;;;;;;;;20.33;59.33;99503.09;8282088;28;19937;-77
2022/10/30 15:29:49;;;;;;;;;;;;;;;20.02;62.21;99514.06;8266491;28;19991;-76
2022/10/30 15:33:53;;;;;;;;;;;;;;;19.84;60.34;99522.72;8278551;28;19940;-76
2022/10/30 15:38:00;;;;;;;;;;;;;;;19.64;62.60;99528.78;8277269;28;19984;-76
2022/10/30 15:42:03;;;;;;;;;;;;;;;19.42;62.78;99515.56;8286433;28;19933;-76
2022/10/30 15:46:07;;;;;;;;;;;;;;;19.20;65.27;99522.53;8280636;28;19930;-76
2022/10/30 15:50:10;;;;;;;;;;;;;;;18.97;65.55;99531.28;8286136;28;19930;-76
2022/10/30 15:54:14;;;;;;;;;;;;;;;18.70;66.97;99539.25;8283180;28;19941;-76
2022/10/30 15:58:19;;;;;;;;;;;;;;;18.40;68.92;99542.91;8281143;28;19987;-77
2022/10/30 16:02:22;;;;;;;;;;;;;;;18.15;70.06;99542.03;8278911;28;20011;-76
2022/10/30 16:06:28;;;;;;;;;;;;;;;17.91;70.54;99544.50;8280042;28;19929;-76
2022/10/30 16:10:33;;;;;;;;;;;;;;;17.72;71.31;99549.47;8283565;28;19984;-76
2022/10/30 16:14:35;;;;;;;;;;;;;;;17.53;71.46;99546.53;8278132;28;19992;-77
2022/10/30 16:18:40;;;;;;;;;;;;;;;17.37;72.08;99554.91;8274547;28;19933;-76
2022/10/30 16:22:41;;;;;;;;;;;;;;;17.21;72.30;99559.72;8278585;28;19930;-77
2022/10/30 16:26:44;;;;;;;;;;;;;;;16.96;72.90;99553.47;8267488;28;20569;-78
2022/10/30 16:30:52;;;;;;;;;;;;;;;16.71;74.24;99564.63;8279457;28;19940;-78
2022/10/30 16:35:01;;;;;;;;;;;;;;;16.55;75.33;99565.91;8283916;28;19944;-79
2022/10/30 16:39:20;;;;;;;;;;;;;;;16.39;75.79;99567.19;8270360;28;19930;-78
2022/10/30 16:43:31;;;;;;;;;;;;;;;16.21;76.16;99566.75;8283001;28;19976;-79
2022/10/30 16:47:48;;;;;;;;;;;;;;;16.02;76.66;99573.31;8288464;28;20394;-79
2022/10/30 16:52:11;;;;;;;;;;;;;;;15.87;76.42;99586.78;8288147;28;20789;-79
2022/10/30 16:56:30;;;;;;;;;;;;;;;15.74;77.21;99578.31;8297028;28;20638;-79
2022/10/30 17:00:32;;;;;;;;;;;;;;;15.65;78.25;99581.16;8282105;28;20048;-79
2022/10/30 17:04:41;;;;;;;;;;;;;;;15.48;78.65;99586.72;8288140;28;19983;-79
2022/10/30 17:08:43;;;;;;;;;;;;;;;15.35;79.01;99587.84;8283749;28;19926;-78
2022/10/30 17:12:45;;;;;;;;;;;;;;;15.25;79.13;99591.53;8291071;28;19936;-79
2022/10/30 17:16:52;;;;;;;;;;;;;;;15.12;79.81;99604.03;8277163;28;20410;-79
2022/10/30 17:21:13;;;;;;;;;;;;;;;14.99;80.44;99607.75;8287092;28;19933;-79
2022/10/30 17:25:39;;;;;;;;;;;;;;;14.86;80.48;99611.47;8279419;28;19983;-79
2022/10/30 17:29:45;;;;;;;;;;;;;;;14.74;81.39;99612.59;8265240;28;20028;-78
2022/10/30 17:34:02;;;;;;;;;;;;;;;14.61;81.62;99613.69;8293403;28;20027;-79
2022/10/30 17:38:04;;;;;;;;;;;;;;;14.48;82.27;99629.56;8271295;28;19930;-79
2022/10/30 17:42:16;;;;;;;;;;;;;;;14.33;82.23;99627.16;8287758;28;19933;-78
2022/10/30 17:46:22;;;;;;;;;;;;;;;14.24;82.68;99635.16;8281064;28;20365;-79
2022/10/30 17:50:23;;;;;;;;;;;;;;;14.17;83.10;99638.72;8291069;28;19929;-79
2022/10/30 17:54:25;;;;;;;;;;;;;;;14.07;83.65;99644.97;8289220;28;19929;-79
2022/10/30 17:58:26;;;;;;;;;;;;;;;13.99;84.20;99644.22;8270854;28;19937;-78
2022/10/30 18:02:27;;;;;;;;;;;;;;;13.88;84.45;99645.25;8276170;28;19933;-78
2022/10/30 18:06:30;;;;;;;;;;;;;;;13.81;84.68;99658.38;8288542;28;19933;-78
2022/10/30 18:10:32;;;;;;;;;;;;;;;13.70;84.72;99653.31;8288810;28;19930;-79
2022/10/30 18:14:33;;;;;;;;;;;;;;;13.63;84.69;99658.59;8292316;28;19931;-79
2022/10/30 18:18:42;;;;;;;;;;;;;;;13.51;84.69;99665.72;8288366;28;19933;-79
2022/10/30 18:22:46;;;;;;;;;;;;;;;13.43;85.84;99669.28;8290318;28;19980;-78
2022/10/30 18:26:49;;;;;;;;;;;;;;;13.35;85.95;99677.22;8294390;28;20377;-79
2022/10/30 18:30:52;;;;;;;;;;;;;;;13.25;85.52;99671.22;8286780;28;19987;-78
2022/10/30 18:34:54;;;;;;;;;;;;;;;13.18;85.69;99677.38;8289413;28;19926;-79
2022/10/30 18:38:56;;;;;;;;;;;;;;;13.07;86.54;99684.41;8290925;28;19937;-78
2022/10/30 18:42:58;;;;;;;;;;;;;;;12.94;86.58;99690.63;8290054;28;19933;-78
2022/10/30 18:47:00;;;;;;;;;;;;;;;12.93;87.17;99686.31;8293808;28;19929;-79
2022/10/30 18:51:04;;;;;;;;;;;;;;;12.88;87.07;99691.53;8288754;28;19948;-79
2022/10/30 18:55:16;;;;;;;;;;;;;;;12.86;87.73;99684.63;8277996;28;20012;-79
2022/10/30 18:59:17;;;;;;;;;;;;;;;12.81;88.04;99687.28;8276321;28;19929;-79
2022/10/30 19:03:18;;;;;;;;;;;;;;;12.73;88.13;99690.81;8288810;28;19943;-79
2022/10/30 19:07:20;;;;;;;;;;;;;;;12.71;88.23;99690.81;8290228;28;20039;-78
2022/10/30 19:11:21;;;;;;;;;;;;;;;12.68;89.59;99699.53;8286099;28;20717;-79
2022/10/30 19:15:27;;;;;;;;;;;;;;;12.63;90.39;99695.25;8283228;28;19937;-78
2022/10/30 19:19:28;;;;;;;;;;;;;;;12.63;90.85;99696.09;8295283;28;19934;-78
2022/10/30 19:23:30;;;;;;;;;;;;;;;12.63;90.46;99696.09;8289205;28;19941;-78
2022/10/30 19:27:31;;;;;;;;;;;;;;;12.64;90.93;99699.56;8290799;28;19926;-80
2022/10/30 19:31:33;;;;;;;;;;;;;;;12.61;90.53;99705.69;8285905;28;19933;-79
2022/10/30 19:35:34;;;;;;;;;;;;;;;12.54;90.30;99705.72;8275765;28;19929;-78
2022/10/30 19:39:36;;;;;;;;;;;;;;;12.45;90.84;99701.44;8289309;28;19929;-78
2022/10/30 19:43:38;;;;;;;;;;;;;;;12.40;90.40;99704.09;8273756;28;19929;-78
2022/10/30 19:47:41;;;;;;;;;;;;;;;12.30;91.10;99705.03;8280551;28;19937;-78
2022/10/30 19:51:42;;;;;;;;;;;;;;;12.21;90.49;99707.69;8286978;28;20012;-78
2022/10/30 19:55:45;;;;;;;;;;;;;;;12.09;90.91;99713.81;8271188;28;19987;-79
2022/10/30 19:59:47;;;;;;;;;;;;;;;12.05;91.15;99719.06;8290418;28;19925;-79
2022/10/30 20:03:48;;;;;;;;;;;;;;;12.00;91.68;99713.00;8272732;28;19939;-79
2022/10/30 20:07:59;;;;;;;;;;;;;;;11.92;91.45;99704.38;8292856;28;19926;-80
2022/10/30 20:12:01;;;;;;;;;;;;;;;11.86;91.15;99717.41;8308219;28;19941;-80
2022/10/30 20:16:03;;;;;;;;;;;;;;;11.84;92.20;99721.75;8271366;28;20195;-79
2022/10/30 20:20:06;;;;;;;;;;;;;;;11.77;92.38;99713.06;8277286;28;19925;-80
2022/10/30 20:24:08;;;;;;;;;;;;;;;11.70;91.96;99721.78;8290692;28;19985;-80
2022/10/30 20:28:20;;;;;;;;;;;;;;;11.65;92.47;99726.13;8292876;28;19929;-78
2022/10/30 20:32:21;;;;;;;;;;;;;;;11.60;92.99;99730.47;8283910;28;19929;-78
2022/10/30 20:36:23;;;;;;;;;;;;;;;11.57;93.17;99725.28;8292388;28;19938;-79
2022/10/30 20:40:24;;;;;;;;;;;;;;;11.54;92.90;99733.97;8290345;28;19929;-79
2022/10/30 20:44:25;;;;;;;;;;;;;;;11.44;92.83;99727.91;8291325;28;19937;-79
2022/10/30 20:48:27;;;;;;;;;;;;;;;11.38;92.85;99735.75;8283588;28;19930;-79
2022/10/30 20:52:29;;;;;;;;;;;;;;;11.36;93.52;99739.22;8275600;28;19965;-79
2022/10/30 20:56:30;;;;;;;;;;;;;;;11.26;93.51;99743.53;8290221;28;19929;-79
2022/10/30 21:00:31;;;;;;;;;;;;;;;11.16;92.88;99741.84;8282088;28;19996;-78
2022/10/30 21:04:33;;;;;;;;;;;;;;;11.09;92.69;99751.34;8290828;28;19929;-78
2022/10/30 21:08:34;;;;;;;;;;;;;;;11.05;93.00;99746.19;8290761;28;19936;-78
2022/10/30 21:12:36;;;;;;;;;;;;;;;10.99;92.85;99743.59;8288069;28;20043;-78
2022/10/30 21:16:38;;;;;;;;;;;;;;;10.94;93.47;99745.31;8276268;28;20254;-80
2022/10/30 21:20:39;;;;;;;;;;;;;;;10.92;93.49;99749.63;8304394;28;20563;-80